createdAt,value
2022-10-10T00:01:32.472Z,9.07
2022-10-10T00:03:59.716Z,9.90
2022-10-10T00:06:30.486Z,9.77
2022-10-10T00:08:59.809Z,9.47
2022-10-10T00:11:26.585Z,9.33
2022-10-10T00:13:53.449Z,9.80
2022-10-10T00:16:20.938Z,9.63
2022-10-10T00:18:47.701Z,10.17
2022-10-10T00:21:14.717Z,10.20
2022-10-10T00:23:41.655Z,9.70
2022-10-10T00:26:09.415Z,9.63
2022-10-10T00:28:38.634Z,10.07
2022-10-10T00:31:07.419Z,9.67
2022-10-10T00:33:34.324Z,9.67
2022-10-10T00:36:01.021Z,9.87
2022-10-10T00:38:27.736Z,10.13
2022-10-10T00:40:56.612Z,10.47
2022-10-10T00:43:26.100Z,10.17
2022-10-10T00:45:53.198Z,10.43
2022-10-10T00:48:26.037Z,9.73
2022-10-10T00:51:03.379Z,9.70
2022-10-10T00:53:40.959Z,11.23
2022-10-10T00:56:09.168Z,11.03
2022-10-10T00:58:39.503Z,11.07
2022-10-10T01:01:07.156Z,11.77
2022-10-10T01:03:33.898Z,11.97
2022-10-10T01:06:00.975Z,11.63
2022-10-10T01:08:28.394Z,12.13
2022-10-10T01:11:25.133Z,12.53
2022-10-10T01:14:10.328Z,11.97
2022-10-10T01:16:45.874Z,11.93
2022-10-10T01:19:34.363Z,12.50
2022-10-10T01:22:30.458Z,12.03
2022-10-10T01:25:09.209Z,11.20
2022-10-10T01:27:45.362Z,12.33
2022-10-10T01:30:19.864Z,12.17
2022-10-10T01:32:55.390Z,11.23
2022-10-10T01:35:47.524Z,12.70
2022-10-10T01:38:23.462Z,11.80
2022-10-10T01:41:10.526Z,12.53
2022-10-10T01:43:37.662Z,12.57
2022-10-10T01:46:32.338Z,11.97
2022-10-10T01:49:00.567Z,12.00
2022-10-10T01:51:36.202Z,12.03
2022-10-10T01:54:12.007Z,11.83
2022-10-10T01:57:08.841Z,11.23
2022-10-10T01:59:53.614Z,11.40
2022-10-10T02:02:26.942Z,10.57
2022-10-10T02:05:01.224Z,10.90
2022-10-10T02:07:43.025Z,11.60
2022-10-10T02:10:11.972Z,11.27
2022-10-10T02:12:40.275Z,10.57
2022-10-10T02:15:12.950Z,10.43
2022-10-10T02:17:41.742Z,10.60
2022-10-10T02:20:12.412Z,9.67
2022-10-10T02:22:44.781Z,10.10
2022-10-10T02:25:12.844Z,10.17
2022-10-10T02:27:53.745Z,10.23
2022-10-10T02:30:21.216Z,9.40
2022-10-10T02:32:52.304Z,9.80
2022-10-10T02:35:25.241Z,10.73
2022-10-10T02:37:53.331Z,10.40
2022-10-10T02:40:27.278Z,9.90
2022-10-10T02:42:55.667Z,10.27
2022-10-10T02:45:23.307Z,10.20
2022-10-10T02:47:51.258Z,10.20
2022-10-10T02:50:18.149Z,10.00
2022-10-10T02:52:44.839Z,10.73
2022-10-10T02:55:11.506Z,10.63
2022-10-10T02:57:38.174Z,11.23
2022-10-10T03:00:06.515Z,10.60
2022-10-10T03:02:33.643Z,11.17
2022-10-10T03:05:00.581Z,11.73
2022-10-10T03:07:27.245Z,11.17
2022-10-10T03:09:53.922Z,11.57
2022-10-10T03:12:20.591Z,11.53
2022-10-10T03:14:47.310Z,11.80
2022-10-10T03:17:14.371Z,11.90
2022-10-10T03:19:41.037Z,12.37
2022-10-10T03:22:07.801Z,12.17
2022-10-10T03:24:35.327Z,12.27
2022-10-10T03:27:02.013Z,12.87
2022-10-10T03:29:28.778Z,12.47
2022-10-10T03:31:55.431Z,11.83
2022-10-10T03:34:22.107Z,11.33
2022-10-10T03:36:48.794Z,12.20
2022-10-10T03:39:15.605Z,11.90
2022-10-10T03:41:42.328Z,11.20
2022-10-10T03:44:09.002Z,11.90
2022-10-10T03:46:35.698Z,11.77
2022-10-10T03:49:02.473Z,11.43
2022-10-10T03:51:29.197Z,11.27
2022-10-10T03:53:56.079Z,11.13
2022-10-10T03:56:22.786Z,11.10
2022-10-10T03:58:49.476Z,11.67
2022-10-10T04:01:16.230Z,11.23
2022-10-10T04:03:43.115Z,11.83
2022-10-10T04:06:10.141Z,11.73
2022-10-10T04:08:36.830Z,11.20
2022-10-10T04:11:03.567Z,11.30
2022-10-10T04:13:30.324Z,11.43
2022-10-10T04:15:57.452Z,11.63
2022-10-10T04:18:25.348Z,10.93
2022-10-10T04:20:52.068Z,11.63
2022-10-10T04:23:18.893Z,11.60
2022-10-10T04:25:45.997Z,11.27
2022-10-10T04:28:14.771Z,10.87
2022-10-10T04:30:41.575Z,11.07
2022-10-10T04:33:08.535Z,11.83
2022-10-10T04:35:37.125Z,11.70
2022-10-10T04:38:05.080Z,12.27
2022-10-10T04:40:32.149Z,11.67
2022-10-10T04:42:59.272Z,10.67
2022-10-10T04:45:28.899Z,12.20
2022-10-10T04:47:55.979Z,12.43
2022-10-10T04:50:23.655Z,12.10
2022-10-10T04:52:50.652Z,11.27
2022-10-10T04:55:18.094Z,11.60
2022-10-10T04:57:44.834Z,12.17
2022-10-10T05:00:12.094Z,11.93
2022-10-10T05:02:38.925Z,11.90
2022-10-10T05:05:06.152Z,12.57
2022-10-10T05:07:33.088Z,11.93
2022-10-10T05:09:59.775Z,12.70
2022-10-10T05:12:26.559Z,11.60
2022-10-10T05:14:53.238Z,12.13
2022-10-10T05:17:20.542Z,11.70
2022-10-10T05:19:47.937Z,11.47
2022-10-10T05:22:14.672Z,11.97
2022-10-10T05:24:41.386Z,12.07
2022-10-10T05:27:08.110Z,11.57
2022-10-10T05:29:35.978Z,12.40
2022-10-10T05:32:06.469Z,12.40
2022-10-10T05:34:35.953Z,12.73
2022-10-10T05:37:02.953Z,11.83
2022-10-10T05:39:29.692Z,12.73
2022-10-10T05:41:56.354Z,12.60
2022-10-10T05:44:23.429Z,13.17
2022-10-10T05:46:50.069Z,12.93
2022-10-10T05:49:16.740Z,14.10
2022-10-10T05:51:43.445Z,12.73
2022-10-10T05:54:10.357Z,13.87
2022-10-10T05:56:37.222Z,13.70
2022-10-10T05:59:04.007Z,13.00
2022-10-10T06:01:30.894Z,14.50
2022-10-10T06:03:57.645Z,14.10
2022-10-10T06:06:25.768Z,13.17
2022-10-10T06:08:53.048Z,14.13
2022-10-10T06:11:20.690Z,14.00
2022-10-10T06:13:50.456Z,14.33
2022-10-10T06:16:17.315Z,14.00
2022-10-10T06:18:44.945Z,14.67
2022-10-10T06:21:12.266Z,14.27
2022-10-10T06:23:39.024Z,14.83
2022-10-10T06:26:06.031Z,14.70
2022-10-10T06:28:32.985Z,14.73
2022-10-10T06:31:01.485Z,15.13
2022-10-10T06:33:28.581Z,14.27
2022-10-10T06:35:55.578Z,15.30
2022-10-10T06:38:22.518Z,14.07
2022-10-10T06:40:49.206Z,15.13
2022-10-10T06:43:17.231Z,14.17
2022-10-10T06:45:46.999Z,14.10
2022-10-10T06:48:15.293Z,13.80
2022-10-10T06:50:42.224Z,14.13
2022-10-10T06:53:09.147Z,13.67
2022-10-10T06:55:35.934Z,14.23
2022-10-10T06:58:02.904Z,12.73
2022-10-10T07:00:29.650Z,13.53
2022-10-10T07:02:56.366Z,12.83
2022-10-10T07:05:23.044Z,13.73
2022-10-10T07:07:52.281Z,12.97
2022-10-10T07:10:19.077Z,12.40
2022-10-10T07:12:45.843Z,12.27
2022-10-10T07:15:13.052Z,12.57
2022-10-10T07:17:39.982Z,11.93
2022-10-10T07:20:07.710Z,11.70
2022-10-10T07:22:34.447Z,11.03
2022-10-10T07:25:01.153Z,11.17
2022-10-10T07:27:27.827Z,10.97
2022-10-10T07:29:54.804Z,11.17
2022-10-10T07:32:21.603Z,11.40
2022-10-10T07:34:48.264Z,10.70
2022-10-10T07:37:15.110Z,10.87
2022-10-10T07:39:41.921Z,9.53
2022-10-10T07:42:08.812Z,10.17
2022-10-10T07:44:35.474Z,10.00
2022-10-10T07:47:02.278Z,10.40
2022-10-10T07:49:30.081Z,9.43
2022-10-10T07:52:00.593Z,9.00
2022-10-10T07:54:28.962Z,9.20
2022-10-10T07:56:55.721Z,10.00
2022-10-10T07:59:22.947Z,9.23
2022-10-10T08:01:50.683Z,9.27
2022-10-10T08:04:18.093Z,8.77
2022-10-10T08:06:44.818Z,9.20
2022-10-10T08:09:12.499Z,9.10
2022-10-10T08:11:39.241Z,9.97
2022-10-10T08:14:06.261Z,9.53
2022-10-10T08:16:32.951Z,8.50
2022-10-10T08:18:59.733Z,8.87
2022-10-10T08:21:26.466Z,10.43
2022-10-10T08:23:53.176Z,9.13
2022-10-10T08:26:20.252Z,8.37
2022-10-10T08:28:48.625Z,8.80
2022-10-10T08:31:18.345Z,8.17
2022-10-10T08:33:46.248Z,8.03
2022-10-10T08:36:19.108Z,8.63
2022-10-10T08:38:45.997Z,8.87
2022-10-10T08:41:33.510Z,8.20
2022-10-10T08:44:36.299Z,7.70
2022-10-10T08:47:09.668Z,8.30
2022-10-10T08:49:58.895Z,7.90
2022-10-10T08:52:39.326Z,8.17
2022-10-10T08:55:37.814Z,8.30
2022-10-10T08:58:20.263Z,7.83
2022-10-10T09:01:28.722Z,8.17
2022-10-10T09:03:59.301Z,8.00
2022-10-10T09:06:55.791Z,7.77
2022-10-10T09:09:59.052Z,7.73
2022-10-10T09:12:44.674Z,8.07
2022-10-10T09:15:27.918Z,7.20
2022-10-10T09:18:14.200Z,7.63
2022-10-10T09:21:12.827Z,6.93
2022-10-10T09:23:54.833Z,7.20
2022-10-10T09:26:50.582Z,7.07
2022-10-10T09:29:39.375Z,7.93
2022-10-10T09:32:38.004Z,7.27
2022-10-10T09:35:24.069Z,6.83
2022-10-10T09:37:59.575Z,6.77
2022-10-10T09:40:37.509Z,7.40
2022-10-10T09:43:15.289Z,7.33
2022-10-10T09:45:48.891Z,6.70
2022-10-10T09:48:15.650Z,6.63
2022-10-10T09:50:43.889Z,6.03
2022-10-10T09:53:16.483Z,7.33
2022-10-10T09:55:45.656Z,6.93
2022-10-10T09:58:46.468Z,6.33
2022-10-10T10:01:23.488Z,5.60
2022-10-10T10:04:33.959Z,6.20
2022-10-10T10:07:26.452Z,5.80
2022-10-10T10:10:17.060Z,5.60
2022-10-10T10:12:44.628Z,5.60
2022-10-10T10:15:17.067Z,6.00
2022-10-10T10:17:43.777Z,5.40
2022-10-10T10:32:12.994Z,5.30
2022-10-10T10:35:11.858Z,5.07
2022-10-10T10:38:15.864Z,5.28
2022-10-10T10:40:49.754Z,5.50
2022-10-10T10:43:33.824Z,5.60
2022-10-10T10:46:20.843Z,5.43
2022-10-10T10:49:07.321Z,4.93
2022-10-10T10:52:34.373Z,5.28
2022-10-10T10:55:56.281Z,5.22
2022-10-10T11:02:05.375Z,5.32
2022-10-10T11:05:21.946Z,5.07
2022-10-10T11:07:52.088Z,5.25
2022-10-10T11:10:18.755Z,5.57
2022-10-10T11:13:05.714Z,5.90
2022-10-10T11:16:06.208Z,6.70
2022-10-10T11:18:40.726Z,5.22
2022-10-10T11:21:25.232Z,4.90
2022-10-10T11:24:07.368Z,5.00
2022-10-10T11:26:44.190Z,4.75
2022-10-10T11:29:16.522Z,4.75
2022-10-10T11:32:06.698Z,4.55
2022-10-10T11:34:40.958Z,4.38
2022-10-10T11:37:28.160Z,4.57
2022-10-10T11:39:59.786Z,5.00
2022-10-10T11:42:50.345Z,4.90
2022-10-10T11:45:28.578Z,4.28
2022-10-10T11:48:27.020Z,4.00
2022-10-10T11:51:00.827Z,4.15
2022-10-10T11:53:40.062Z,5.20
2022-10-10T11:56:28.763Z,4.30
2022-10-10T11:59:01.903Z,4.60
2022-10-10T12:01:35.570Z,4.45
2022-10-10T12:04:02.350Z,5.00
2022-10-10T12:06:35.897Z,4.82
2022-10-10T12:09:17.353Z,4.45
2022-10-10T12:11:51.010Z,4.72
2022-10-10T12:14:21.308Z,4.53
2022-10-10T12:16:49.013Z,4.43
2022-10-10T12:19:21.181Z,4.53
2022-10-10T12:22:06.029Z,4.45
2022-10-10T12:24:53.312Z,4.40
2022-10-10T12:27:41.716Z,4.50
2022-10-10T12:30:08.732Z,4.30
2022-10-10T12:32:43.663Z,4.53
2022-10-10T12:35:36.113Z,6.63
2022-10-10T12:38:06.123Z,5.93
2022-10-10T12:40:34.108Z,4.78
2022-10-10T12:43:22.304Z,5.72
2022-10-10T12:45:57.552Z,5.32
2022-10-10T12:48:25.348Z,4.53
2022-10-10T12:51:00.649Z,5.50
2022-10-10T12:53:31.373Z,4.90
2022-10-10T12:56:01.809Z,4.22
2022-10-10T12:58:35.186Z,5.00
2022-10-10T13:01:06.387Z,5.18
2022-10-10T13:03:38.757Z,4.30
2022-10-10T13:06:08.312Z,5.05
2022-10-10T13:08:37.372Z,4.50
2022-10-10T13:11:08.394Z,5.05
2022-10-10T13:13:35.740Z,5.10
2022-10-10T13:16:18.620Z,5.03
2022-10-10T13:18:59.673Z,4.68
2022-10-10T13:21:28.587Z,4.95
2022-10-10T13:24:03.513Z,5.07
2022-10-10T13:26:38.732Z,5.20
2022-10-10T13:29:32.079Z,4.65
2022-10-10T13:32:01.428Z,4.65
2022-10-10T13:34:40.057Z,5.07
2022-10-10T13:37:07.410Z,5.00
2022-10-10T13:39:37.536Z,4.70
2022-10-10T13:42:06.037Z,5.20
2022-10-10T13:44:54.460Z,5.20
2022-10-10T13:47:42.941Z,4.95
2022-10-10T13:50:21.670Z,5.65
2022-10-10T13:52:48.534Z,5.82
2022-10-10T13:55:25.128Z,5.65
2022-10-10T13:57:56.137Z,5.93
2022-10-10T14:00:25.478Z,5.43
2022-10-10T14:02:52.354Z,5.60
2022-10-10T14:05:31.782Z,5.22
2022-10-10T14:07:59.280Z,5.82
2022-10-10T14:10:28.898Z,5.20
2022-10-10T14:12:59.443Z,5.95
2022-10-10T14:15:41.455Z,6.00
2022-10-10T14:18:22.783Z,5.70
2022-10-10T14:20:50.628Z,5.95
2022-10-10T14:23:18.054Z,6.20
2022-10-10T14:25:47.976Z,6.05
2022-10-10T14:28:37.177Z,6.50
2022-10-10T14:31:04.563Z,6.97
2022-10-10T14:33:32.327Z,6.10
2022-10-10T14:36:00.118Z,5.82
2022-10-10T14:38:27.179Z,5.85
2022-10-10T14:40:55.230Z,6.15
2022-10-10T14:43:23.569Z,7.03
2022-10-10T14:45:52.498Z,8.38
2022-10-10T14:48:20.077Z,7.45
2022-10-10T14:50:48.421Z,7.53
2022-10-10T14:53:15.558Z,7.38
2022-10-10T14:55:43.696Z,8.40
2022-10-10T14:58:23.961Z,7.03
2022-10-10T15:00:52.826Z,6.90
2022-10-10T15:03:19.707Z,7.60
2022-10-10T15:05:48.429Z,8.68
2022-10-10T15:08:17.829Z,8.65
2022-10-10T15:10:46.241Z,11.13
2022-10-10T15:13:14.020Z,12.43
2022-10-10T15:15:41.015Z,9.95
2022-10-10T15:18:25.575Z,9.10
2022-10-10T15:20:55.150Z,9.35
2022-10-10T15:23:21.940Z,9.10
2022-10-10T15:25:48.618Z,10.30
2022-10-10T15:28:15.651Z,10.93
2022-10-10T15:30:45.929Z,13.43
2022-10-10T15:33:12.727Z,13.25
2022-10-10T15:36:04.030Z,15.43
2022-10-10T15:38:26.603Z,21.10
2022-10-10T15:41:01.971Z,25.70
2022-10-10T15:43:29.543Z,22.10
2022-10-10T15:45:58.695Z,20.23
2022-10-10T15:48:26.153Z,17.85
2022-10-10T15:50:53.081Z,19.77
2022-10-10T15:53:19.826Z,20.50
2022-10-10T15:55:47.667Z,16.92
2022-10-10T15:58:15.294Z,20.45
2022-10-10T16:00:43.720Z,20.27
2022-10-10T16:03:11.637Z,28.13
2022-10-10T16:05:40.605Z,29.80
2022-10-10T16:08:07.883Z,29.33
2022-10-10T16:10:39.805Z,29.45
2022-10-10T16:13:06.772Z,25.33
2022-10-10T16:15:34.039Z,21.17
2022-10-10T16:18:00.857Z,18.35
2022-10-10T16:20:28.610Z,17.77
2022-10-10T16:22:55.573Z,20.48
2022-10-10T16:25:23.056Z,28.85
2022-10-10T16:27:50.321Z,32.10
2022-10-10T16:30:17.099Z,32.70
2022-10-10T16:32:43.810Z,30.67
2022-10-10T16:35:11.534Z,29.10
2022-10-10T16:37:38.871Z,24.65
2022-10-10T16:40:06.677Z,22.73
2022-10-10T16:42:34.404Z,22.25
2022-10-10T16:45:01.106Z,23.30
2022-10-10T16:47:27.796Z,30.50
2022-10-10T16:49:54.617Z,33.60
2022-10-10T16:52:21.354Z,32.22
2022-10-10T16:54:51.933Z,31.30
2022-10-10T16:57:23.229Z,41.70
2022-10-10T16:59:49.908Z,44.80
2022-10-10T17:02:16.750Z,45.75
2022-10-10T17:04:43.502Z,50.75
2022-10-10T17:07:10.266Z,53.10
2022-10-10T17:09:37.743Z,50.47
2022-10-10T17:12:04.565Z,45.90
2022-10-10T17:14:31.500Z,54.13
2022-10-10T17:17:11.771Z,65.07
2022-10-10T17:19:39.076Z,61.40
2022-10-10T17:22:05.849Z,60.08
2022-10-10T17:24:33.228Z,58.43
2022-10-10T17:27:00.020Z,80.88
2022-10-10T17:29:26.686Z,77.23
2022-10-10T17:31:53.353Z,67.93
2022-10-10T17:34:20.078Z,65.07
2022-10-10T17:36:48.205Z,58.30
2022-10-10T17:39:14.921Z,52.30
2022-10-10T17:41:41.819Z,50.23
2022-10-10T17:44:10.680Z,45.63
2022-10-10T17:46:38.135Z,42.17
2022-10-10T17:49:06.525Z,43.13
2022-10-10T17:51:34.420Z,44.20
2022-10-10T17:54:01.596Z,49.33
2022-10-10T17:56:28.571Z,53.67
2022-10-10T17:58:55.396Z,66.03
2022-10-10T18:01:22.602Z,86.93
2022-10-10T18:03:49.702Z,81.63
2022-10-10T18:06:20.874Z,81.67
2022-10-10T18:08:52.007Z,76.33
2022-10-10T18:11:22.842Z,79.00
2022-10-10T18:13:50.420Z,82.97
2022-10-10T18:16:20.131Z,89.33
2022-10-10T18:18:51.101Z,118.27
2022-10-10T18:21:21.035Z,99.57
2022-10-10T18:23:48.157Z,75.27
2022-10-10T18:26:17.325Z,71.90
2022-10-10T18:28:44.363Z,69.00
2022-10-10T18:31:16.830Z,59.70
2022-10-10T18:33:47.504Z,48.10
2022-10-10T18:36:16.979Z,47.43
2022-10-10T18:38:44.105Z,50.57
2022-10-10T18:41:16.497Z,51.73
2022-10-10T18:43:44.876Z,54.43
2022-10-10T18:46:22.141Z,52.90
2022-10-10T18:48:52.922Z,50.80
2022-10-10T18:51:24.493Z,48.73
2022-10-10T18:53:54.865Z,47.27
2022-10-10T18:56:24.552Z,50.37
2022-10-10T18:58:56.109Z,51.87
2022-10-10T19:01:25.455Z,51.03
2022-10-10T19:03:54.099Z,54.03
2022-10-10T19:06:22.975Z,72.43
2022-10-10T19:08:51.972Z,69.20
2022-10-10T19:11:20.300Z,82.07
2022-10-10T19:13:47.060Z,77.43
2022-10-10T19:16:14.049Z,67.57
2022-10-10T19:18:40.759Z,58.30
2022-10-10T19:21:07.859Z,58.00
2022-10-10T19:23:34.765Z,52.83
2022-10-10T19:26:03.811Z,46.07
2022-10-10T19:28:32.062Z,40.37
2022-10-10T19:31:07.094Z,34.30
2022-10-10T19:33:34.298Z,32.03
2022-10-10T19:36:03.430Z,28.57
2022-10-10T19:38:30.770Z,26.77
2022-10-10T19:40:57.511Z,25.13
2022-10-10T19:43:24.542Z,24.00
2022-10-10T19:45:51.769Z,22.80
2022-10-10T19:48:23.514Z,23.30
2022-10-10T19:50:50.334Z,22.13
2022-10-10T19:53:18.409Z,22.40
2022-10-10T19:55:56.383Z,23.17
2022-10-10T19:58:23.150Z,22.60
2022-10-10T20:00:49.830Z,22.23
2022-10-10T20:03:16.657Z,22.23
2022-10-10T20:05:43.346Z,21.50
2022-10-10T20:08:11.036Z,21.30
2022-10-10T20:10:44.592Z,20.90
2022-10-10T20:13:14.849Z,21.00
2022-10-10T20:15:46.183Z,19.37
2022-10-10T20:18:13.331Z,20.47
2022-10-10T20:20:41.658Z,20.07
2022-10-10T20:23:09.554Z,21.63
2022-10-10T20:25:41.161Z,20.07
2022-10-10T20:28:08.641Z,19.17
2022-10-10T20:30:40.069Z,20.03
2022-10-10T20:33:07.462Z,19.50
2022-10-10T20:35:35.057Z,20.13
2022-10-10T20:38:02.419Z,20.90
2022-10-10T20:40:29.324Z,20.13
2022-10-10T20:42:56.511Z,18.13
2022-10-10T20:45:23.165Z,17.37
2022-10-10T20:47:50.256Z,17.57
2022-10-10T20:50:17.094Z,16.83
2022-10-10T20:52:43.893Z,16.67
2022-10-10T20:55:10.728Z,17.13
2022-10-10T20:57:37.423Z,17.20
2022-10-10T21:00:05.309Z,15.60
2022-10-10T21:02:32.183Z,16.73
2022-10-10T21:04:59.008Z,16.90
2022-10-10T21:07:27.681Z,16.83
2022-10-10T21:09:54.360Z,16.27
2022-10-10T21:12:21.122Z,15.63
2022-10-10T21:14:47.866Z,15.27
2022-10-10T21:17:14.762Z,15.27
2022-10-10T21:19:41.502Z,15.40
2022-10-10T21:22:08.314Z,15.00
2022-10-10T21:24:35.010Z,14.23
2022-10-10T21:27:01.667Z,13.87
2022-10-10T21:29:28.570Z,13.77
2022-10-10T21:31:56.098Z,13.80
2022-10-10T21:34:22.817Z,14.00
2022-10-10T21:36:49.491Z,14.67
2022-10-10T21:39:16.319Z,14.20
2022-10-10T21:41:43.304Z,14.63
2022-10-10T21:44:10.655Z,15.23
2022-10-10T21:46:38.048Z,14.63
2022-10-10T21:49:07.304Z,13.53
2022-10-10T21:51:40.545Z,13.60
2022-10-10T21:54:08.207Z,13.13
2022-10-10T21:56:35.630Z,11.87
2022-10-10T21:59:03.008Z,12.13
2022-10-10T22:01:32.860Z,12.13
2022-10-10T22:04:00.752Z,11.30
2022-10-10T22:06:27.674Z,10.77
2022-10-10T22:08:57.271Z,10.97
2022-10-10T22:11:26.501Z,10.93
2022-10-10T22:13:53.747Z,10.00
2022-10-10T22:16:21.499Z,10.43
2022-10-10T22:18:52.411Z,10.30
2022-10-10T22:21:19.786Z,10.03
2022-10-10T22:23:46.750Z,10.13
2022-10-10T22:26:15.791Z,11.00
2022-10-10T22:28:43.111Z,10.87
2022-10-10T22:31:12.870Z,11.07
2022-10-10T22:33:41.184Z,10.90
2022-10-10T22:36:09.323Z,11.17
2022-10-10T22:38:38.567Z,10.27
2022-10-10T22:41:05.627Z,10.70
2022-10-10T22:43:32.409Z,11.17
2022-10-10T22:45:59.102Z,12.57
2022-10-10T22:48:25.887Z,12.40
2022-10-10T22:51:04.222Z,13.07
2022-10-10T22:53:31.050Z,13.03
2022-10-10T22:55:57.812Z,12.97
2022-10-10T22:58:24.851Z,11.87
2022-10-10T23:00:51.739Z,11.87
2022-10-10T23:03:18.766Z,11.07
2022-10-10T23:05:46.231Z,10.70
2022-10-10T23:08:12.957Z,11.03
2022-10-10T23:10:39.684Z,10.83
2022-10-10T23:13:06.427Z,10.53
2022-10-10T23:15:33.258Z,10.60
2022-10-10T23:18:00.423Z,11.73
2022-10-10T23:20:27.603Z,11.40
2022-10-10T23:22:54.808Z,11.00
2022-10-10T23:25:21.550Z,10.90
2022-10-10T23:27:49.871Z,10.00
2022-10-10T23:30:16.737Z,10.03
2022-10-10T23:32:43.966Z,10.60
2022-10-10T23:35:11.450Z,10.47
2022-10-10T23:37:38.904Z,10.50
2022-10-10T23:40:06.681Z,9.60
2022-10-10T23:42:33.578Z,10.47
2022-10-10T23:45:00.343Z,10.17
2022-10-10T23:47:27.504Z,9.33
2022-10-10T23:49:54.324Z,9.50
2022-10-10T23:52:21.139Z,10.23
2022-10-10T23:54:47.855Z,10.00
2022-10-10T23:57:14.892Z,9.97
2022-10-10T23:59:41.595Z,10.07
